Skagerak — SGCD — position and weather

sailwx.info

Track history (hours):
 
Tides and Currents Weather Stations Pressure Air Temp Water Temp Dewpoint Dewpoint Depression Visibility Wind Speed Wind Dir Waves Ship Positions

Oceanographic research ship Skagerak (Sweden)

Detailed information on ship capabilities available from University of Delaware's Ocean Information Center.

Last reported at 2017-Apr-30 20:30 UTC. Time now 2017-Apr-30 20:34 UTC.
Position N 57°39' E 011°52'.

Length 38 m; draft 3.8 m.

Type: Dredging. MMSI: 265280000.

Date/timePositionNaut miles runAvg speedWind from/ knotsBaromVisibWave heightAir tempDewpointWater temp
2017-Apr-30 20:30N 57°39' E 011°52'0 0.0
2017-Apr-30 20:00N 57°39' E 011°52'0 0.0
2017-Apr-30 19:30N 57°39' E 011°52'0 0.0
2017-Apr-30 19:00N 57°39' E 011°52'0 0.0
2017-Apr-30 18:30N 57°39' E 011°52'0 0.0
2017-Apr-30 18:00N 57°39' E 011°52'0 0.0
2017-Apr-30 17:30N 57°39' E 011°52'0 0.0
2017-Apr-30 17:00N 57°39' E 011°52'0 0.0
2017-Apr-30 16:30N 57°39' E 011°52'0 0.0
2017-Apr-30 16:00N 57°39' E 011°52'0 0.0
2017-Apr-30 15:31N 57°39' E 011°52'0 0.0
2017-Apr-30 15:00N 57°39' E 011°52'0 0.0
2017-Apr-30 14:30N 57°39' E 011°52'0 0.0
2017-Apr-30 13:30N 57°39' E 011°52'0 0.0
2017-Apr-30 13:00N 57°39' E 011°52'0 0.0
2017-Apr-30 12:30N 57°39' E 011°52'0 0.0
2017-Apr-30 12:00N 57°39' E 011°52'0 0.0
2017-Apr-30 11:30N 57°39' E 011°52'0 0.0
2017-Apr-30 11:00N 57°39' E 011°52'0 0.0
2017-Apr-30 10:30N 57°39' E 011°52'0 0.0
2017-Apr-30 10:00N 57°39' E 011°52'0 0.0
2017-Apr-30 09:30N 57°39' E 011°52'0 0.0
2017-Apr-30 09:00N 57°39' E 011°52'0 0.0
2017-Apr-30 08:30N 57°39' E 011°52'0 0.0
2017-Apr-30 08:00N 57°39' E 011°52'0 0.0
2017-Apr-30 07:30N 57°39' E 011°52'0 0.0
2017-Apr-30 07:00N 57°39' E 011°52'0 0.0
2017-Apr-30 06:30N 57°39' E 011°52'0 0.0
2017-Apr-30 06:00N 57°39' E 011°52'1 2.0
2017-Apr-30 05:30N 57°39' E 011°50'3 6.5
2017-Apr-30 05:00N 57°42' E 011°54'2 3.2
2017-Apr-30 04:30N 57°42' E 011°57'0 0.0
2017-Apr-30 04:00N 57°42' E 011°57'0 0.0
2017-Apr-30 03:30N 57°42' E 011°57'0 0.0
2017-Apr-30 03:00N 57°42' E 011°57'2 4.1
2017-Apr-30 02:30N 57°41' E 011°53'3 5.2
2017-Apr-30 02:00N 57°41' E 011°49'2 5.0
2017-Apr-30 01:30N 57°38' E 011°49'3 5.3
2017-Apr-30 01:00N 57°36' E 011°49'3 5.2
2017-Apr-30 00:30N 57°33' E 011°49'3 5.5
2017-Apr-30 00:00N 57°30' E 011°50'3 5.3
2017-Apr-29 23:30N 57°28' E 011°51'4 5.9
2017-Apr-29 22:53N 57°24' E 011°52'3 6.0
2017-Apr-29 22:27N 57°22' E 011°54'3 6.4
2017-Apr-29 22:00N 57°19' E 011°55'4 8.0
2017-Apr-29 21:30N 57°15' E 011°58'6410.0
2017-Apr-29 15:08N 56°14' E 012°28'111.4
2017-Apr-29 15:00N 56°12' E 012°29'1212.0
2017-Apr-29 14:00N 56°02' E 012°40'510.9
2017-Apr-29 13:30N 55°57' E 012°43'510.9
2017-Apr-29 13:01N 55°52' E 012°45'510.6
2017-Apr-29 12:30N 55°47' E 012°49'510.7
2017-Apr-29 12:00N 55°42' E 012°54'5 9.1
2017-Apr-29 11:30N 55°38' E 012°54'510.2
2017-Apr-29 11:01N 55°33' E 012°49'510.1
2017-Apr-29 10:30N 55°29' E 012°53'4 9.0
2017-Apr-29 10:00N 55°25' E 012°56'2 3.9
2017-Apr-29 09:30N 55°23' E 012°58'510.2
2017-Apr-29 09:00N 55°20' E 013°06'610.6
2017-Apr-29 08:28N 55°18' E 013°15'1110.6
2017-Apr-29 07:26N 55°16' E 013°34'610.2
2017-Apr-29 06:52N 55°16' E 013°44'410.3
2017-Apr-29 06:29N 55°15' E 013°51'510.3
2017-Apr-29 06:00N 55°15' E 013°60'510.4
2017-Apr-29 05:29N 55°14' E 014°09'5 9.8
2017-Apr-29 05:00N 55°15' E 014°17'510.4
2017-Apr-29 04:30N 55°19' E 014°23'510.4
2017-Apr-29 03:59N 55°23' E 014°30'510.7
2017-Apr-29 03:30N 55°26' E 014°36'510.4
2017-Apr-29 03:00N 55°29' E 014°44'510.2
2017-Apr-29 02:29N 55°32' E 014°52'510.2
2017-Apr-29 01:58N 55°35' E 014°60'510.3
2017-Apr-29 01:30N 55°37' E 015°07'510.4
2017-Apr-29 01:00N 55°40' E 015°15'510.3
2017-Apr-29 00:30N 55°42' E 015°23'510.4
2017-Apr-29 00:00N 55°45' E 015°31'510.5
2017-Apr-28 23:31N 55°48' E 015°39'510.4
2017-Apr-28 23:00N 55°50' E 015°47'510.5
2017-Apr-28 22:31N 55°53' E 015°55'510.4
2017-Apr-28 22:00N 55°56' E 016°03'510.4
2017-Apr-28 21:30N 55°58' E 016°11'510.4
2017-Apr-28 21:00N 56°01' E 016°19'510.5
2017-Apr-28 20:30N 56°04' E 016°27'510.6
2017-Apr-28 20:00N 56°06' E 016°35'510.6
2017-Apr-28 19:30N 56°10' E 016°43'510.6
2017-Apr-28 19:00N 56°13' E 016°50'510.5
2017-Apr-28 18:30N 56°16' E 016°57'510.4
2017-Apr-28 18:00N 56°19' E 017°05'510.4
2017-Apr-28 17:30N 56°22' E 017°12'510.4
2017-Apr-28 17:00N 56°26' E 017°20'510.4
2017-Apr-28 16:30N 56°29' E 017°27'510.5
2017-Apr-28 16:00N 56°32' E 017°35'810.4
2017-Apr-28 15:11N 56°37' E 017°47'210.3
2017-Apr-28 14:58N 56°38' E 017°51'  
Track history (hours):
 
Tides and Currents Weather Stations Pressure Air Temp Water Temp Dewpoint Dewpoint Depression Visibility Wind Speed Wind Dir Waves Ship Positions

Oceanographic research ship Skagerak (Sweden)

Detailed information on ship capabilities available from University of Delaware's Ocean Information Center.

Last reported at 2017-Apr-30 20:30 UTC. Time now 2017-Apr-30 20:34 UTC.
Position N 57°39' E 011°52'.

Length 38 m; draft 3.8 m.

Type: Dredging. MMSI: 265280000.

Date/timePositionNaut miles runAvg speedWind from/ knotsBaromVisibWave heightAir tempDewpointWater temp
2017-Apr-30 20:30N 57°39' E 011°52'0 0.0
2017-Apr-30 20:00N 57°39' E 011°52'0 0.0
2017-Apr-30 19:30N 57°39' E 011°52'0 0.0
2017-Apr-30 19:00N 57°39' E 011°52'0 0.0
2017-Apr-30 18:30N 57°39' E 011°52'0 0.0
2017-Apr-30 18:00N 57°39' E 011°52'0 0.0
2017-Apr-30 17:30N 57°39' E 011°52'0 0.0
2017-Apr-30 17:00N 57°39' E 011°52'0 0.0
2017-Apr-30 16:30N 57°39' E 011°52'0 0.0
2017-Apr-30 16:00N 57°39' E 011°52'0 0.0
2017-Apr-30 15:31N 57°39' E 011°52'0 0.0
2017-Apr-30 15:00N 57°39' E 011°52'0 0.0
2017-Apr-30 14:30N 57°39' E 011°52'0 0.0
2017-Apr-30 13:30N 57°39' E 011°52'0 0.0
2017-Apr-30 13:00N 57°39' E 011°52'0 0.0
2017-Apr-30 12:30N 57°39' E 011°52'0 0.0
2017-Apr-30 12:00N 57°39' E 011°52'0 0.0
2017-Apr-30 11:30N 57°39' E 011°52'0 0.0
2017-Apr-30 11:00N 57°39' E 011°52'0 0.0
2017-Apr-30 10:30N 57°39' E 011°52'0 0.0
2017-Apr-30 10:00N 57°39' E 011°52'0 0.0
2017-Apr-30 09:30N 57°39' E 011°52'0 0.0
2017-Apr-30 09:00N 57°39' E 011°52'0 0.0
2017-Apr-30 08:30N 57°39' E 011°52'0 0.0
2017-Apr-30 08:00N 57°39' E 011°52'0 0.0
2017-Apr-30 07:30N 57°39' E 011°52'0 0.0
2017-Apr-30 07:00N 57°39' E 011°52'0 0.0
2017-Apr-30 06:30N 57°39' E 011°52'0 0.0
2017-Apr-30 06:00N 57°39' E 011°52'1 2.0
2017-Apr-30 05:30N 57°39' E 011°50'3 6.5
2017-Apr-30 05:00N 57°42' E 011°54'2 3.2
2017-Apr-30 04:30N 57°42' E 011°57'0 0.0
2017-Apr-30 04:00N 57°42' E 011°57'0 0.0
2017-Apr-30 03:30N 57°42' E 011°57'0 0.0
2017-Apr-30 03:00N 57°42' E 011°57'2 4.1
2017-Apr-30 02:30N 57°41' E 011°53'3 5.2
2017-Apr-30 02:00N 57°41' E 011°49'2 5.0
2017-Apr-30 01:30N 57°38' E 011°49'3 5.3
2017-Apr-30 01:00N 57°36' E 011°49'3 5.2
2017-Apr-30 00:30N 57°33' E 011°49'3 5.5
2017-Apr-30 00:00N 57°30' E 011°50'3 5.3
2017-Apr-29 23:30N 57°28' E 011°51'4 5.9
2017-Apr-29 22:53N 57°24' E 011°52'3 6.0
2017-Apr-29 22:27N 57°22' E 011°54'3 6.4
2017-Apr-29 22:00N 57°19' E 011°55'4 8.0
2017-Apr-29 21:30N 57°15' E 011°58'6410.0
2017-Apr-29 15:08N 56°14' E 012°28'111.4
2017-Apr-29 15:00N 56°12' E 012°29'1212.0
2017-Apr-29 14:00N 56°02' E 012°40'510.9
2017-Apr-29 13:30N 55°57' E 012°43'510.9
2017-Apr-29 13:01N 55°52' E 012°45'510.6
2017-Apr-29 12:30N 55°47' E 012°49'510.7
2017-Apr-29 12:00N 55°42' E 012°54'5 9.1
2017-Apr-29 11:30N 55°38' E 012°54'510.2
2017-Apr-29 11:01N 55°33' E 012°49'510.1
2017-Apr-29 10:30N 55°29' E 012°53'4 9.0
2017-Apr-29 10:00N 55°25' E 012°56'2 3.9
2017-Apr-29 09:30N 55°23' E 012°58'510.2
2017-Apr-29 09:00N 55°20' E 013°06'610.6
2017-Apr-29 08:28N 55°18' E 013°15'1110.6
2017-Apr-29 07:26N 55°16' E 013°34'610.2
2017-Apr-29 06:52N 55°16' E 013°44'410.3
2017-Apr-29 06:29N 55°15' E 013°51'510.3
2017-Apr-29 06:00N 55°15' E 013°60'510.4
2017-Apr-29 05:29N 55°14' E 014°09'5 9.8
2017-Apr-29 05:00N 55°15' E 014°17'510.4
2017-Apr-29 04:30N 55°19' E 014°23'510.4
2017-Apr-29 03:59N 55°23' E 014°30'510.7
2017-Apr-29 03:30N 55°26' E 014°36'510.4
2017-Apr-29 03:00N 55°29' E 014°44'510.2
2017-Apr-29 02:29N 55°32' E 014°52'510.2
2017-Apr-29 01:58N 55°35' E 014°60'510.3
2017-Apr-29 01:30N 55°37' E 015°07'510.4
2017-Apr-29 01:00N 55°40' E 015°15'510.3
2017-Apr-29 00:30N 55°42' E 015°23'510.4
2017-Apr-29 00:00N 55°45' E 015°31'510.5
2017-Apr-28 23:31N 55°48' E 015°39'510.4
2017-Apr-28 23:00N 55°50' E 015°47'510.5
2017-Apr-28 22:31N 55°53' E 015°55'510.4
2017-Apr-28 22:00N 55°56' E 016°03'510.4
2017-Apr-28 21:30N 55°58' E 016°11'510.4
2017-Apr-28 21:00N 56°01' E 016°19'510.5
2017-Apr-28 20:30N 56°04' E 016°27'510.6
2017-Apr-28 20:00N 56°06' E 016°35'510.6
2017-Apr-28 19:30N 56°10' E 016°43'510.6
2017-Apr-28 19:00N 56°13' E 016°50'510.5
2017-Apr-28 18:30N 56°16' E 016°57'510.4
2017-Apr-28 18:00N 56°19' E 017°05'510.4
2017-Apr-28 17:30N 56°22' E 017°12'510.4
2017-Apr-28 17:00N 56°26' E 017°20'510.4
2017-Apr-28 16:30N 56°29' E 017°27'510.5
2017-Apr-28 16:00N 56°32' E 017°35'810.4
2017-Apr-28 15:11N 56°37' E 017°47'210.3
2017-Apr-28 14:58N 56°38' E 017°51'  

Dump ship's entire track history